Time;durP1;ratioP1;P1;durP2;ratioP2;P2;SDS_P1;SDS_P2;PMS_P1;PMS_P2;Temp;Humidity;BMP_temperature;BMP_pressure;BME280_temperature;BME280_humidity;BME280_pressure;Samples;Min_cycle;Max_cycle;Signal;HPM_P1;HPM_P2
2023/10/18 00:01:22;;;;;;;16.92;12.90;;;;;;;3.64;100.00;97049.84;5006706;28;20406;-82
2023/10/18 00:03:48;;;;;;;17.02;13.70;;;;;;;3.61;100.00;97045.03;5004811;28;20406;-84
2023/10/18 00:06:21;;;;;;;16.85;12.82;;;;;;;3.58;100.00;97042.84;5014119;28;20395;-83
2023/10/18 00:08:47;;;;;;;19.52;15.27;;;;;;;3.56;100.00;97047.50;5004801;28;20449;-85
2023/10/18 00:11:15;;;;;;;20.83;15.63;;;;;;;3.54;100.00;97046.09;5004245;28;20418;-83
2023/10/18 00:13:41;;;;;;;18.85;14.70;;;;;;;3.52;100.00;97037.69;5004613;28;20446;-83
2023/10/18 00:16:08;;;;;;;18.65;14.40;;;;;;;3.49;100.00;97044.94;5004461;28;20401;-84
2023/10/18 00:18:35;;;;;;;18.23;13.77;;;;;;;3.49;100.00;97049.34;5005348;28;20399;-82
2023/10/18 00:21:02;;;;;;;17.45;12.82;;;;;;;3.47;100.00;97044.34;5007114;28;20398;-83
2023/10/18 00:23:31;;;;;;;19.02;15.07;;;;;;;3.45;100.00;97040.34;5007266;28;20409;-83
2023/10/18 00:25:59;;;;;;;18.27;13.82;;;;;;;3.43;100.00;97043.19;5007616;28;20399;-83
2023/10/18 00:28:27;;;;;;;15.93;13.20;;;;;;;3.42;100.00;97038.16;5009251;28;20401;-85
2023/10/18 00:30:53;;;;;;;20.08;14.27;;;;;;;3.40;100.00;97040.97;5011161;28;20490;-85
2023/10/18 00:33:20;;;;;;;18.00;13.70;;;;;;;3.40;100.00;97029.72;5009943;28;20410;-83
2023/10/18 00:35:52;;;;;;;22.70;15.30;;;;;;;3.38;100.00;97026.53;4991742;28;20411;-83
2023/10/18 00:38:18;;;;;;;21.77;16.30;;;;;;;3.37;100.00;97024.91;5010775;28;20451;-84
2023/10/18 00:40:45;;;;;;;19.55;15.13;;;;;;;3.37;100.00;97023.09;5011424;28;20418;-84
2023/10/18 00:45:46;;;;;;;20.05;14.10;;;;;;;3.37;100.00;97030.16;5009094;28;20411;-84
2023/10/18 00:48:13;;;;;;;18.08;13.80;;;;;;;3.37;100.00;97017.06;5006813;28;20406;-83
2023/10/18 00:50:43;;;;;;;16.73;13.40;;;;;;;3.35;100.00;96998.16;5005447;28;20422;-83
2023/10/18 00:53:10;;;;;;;20.30;15.23;;;;;;;3.33;100.00;96995.75;5005191;28;20407;-83
2023/10/18 00:55:37;;;;;;;20.50;15.80;;;;;;;3.31;100.00;96994.38;5004537;28;20460;-83
2023/10/18 00:58:08;;;;;;;20.15;14.75;;;;;;;3.30;100.00;96998.81;5004450;28;20432;-82
2023/10/18 01:00:40;;;;;;;19.63;14.68;;;;;;;3.28;100.00;96989.56;5004260;28;20468;-84
2023/10/18 01:03:25;;;;;;;18.73;14.43;;;;;;;3.26;100.00;96989.78;5004411;28;20415;-82
2023/10/18 01:05:59;;;;;;;18.75;14.00;;;;;;;3.27;100.00;96987.97;5004527;28;20444;-83
2023/10/18 01:08:25;;;;;;;18.65;14.27;;;;;;;3.26;100.00;96988.97;5004832;28;20430;-83
2023/10/18 01:10:52;;;;;;;20.15;14.73;;;;;;;3.26;100.00;96988.97;5004414;28;20433;-83
2023/10/18 01:13:20;;;;;;;18.42;14.25;;;;;;;3.25;100.00;96982.16;5002496;28;20406;-82
2023/10/18 01:15:46;;;;;;;19.17;14.97;;;;;;;3.23;100.00;96974.53;5016657;28;20466;-82
2023/10/18 01:18:14;;;;;;;19.13;14.27;;;;;;;3.22;100.00;96969.50;5022459;28;20401;-83
2023/10/18 01:20:40;;;;;;;18.35;13.82;;;;;;;3.20;100.00;96968.94;5021756;28;20454;-81
2023/10/18 01:23:11;;;;;;;17.67;13.43;;;;;;;3.18;100.00;96963.91;5021531;28;20484;-84
2023/10/18 01:25:39;;;;;;;20.33;15.68;;;;;;;3.15;100.00;96955.69;5023698;28;20450;-82
2023/10/18 01:28:05;;;;;;;22.92;17.17;;;;;;;3.13;100.00;96957.72;5023160;28;20427;-83
2023/10/18 01:30:33;;;;;;;22.55;16.63;;;;;;;3.12;100.00;96951.69;5024111;28;20464;-84
2023/10/18 01:32:59;;;;;;;20.27;15.00;;;;;;;3.11;100.00;96950.88;5024086;28;20498;-84
2023/10/18 01:35:25;;;;;;;19.93;15.20;;;;;;;3.12;100.00;96959.53;5025072;28;20396;-81
2023/10/18 01:37:53;;;;;;;18.23;13.90;;;;;;;3.11;100.00;96950.88;5025019;28;20404;-83
2023/10/18 01:42:57;;;;;;;20.13;15.55;;;;;;;3.08;100.00;96940.84;5026054;28;20408;-85
2023/10/18 01:45:26;;;;;;;19.17;14.90;;;;;;;3.08;100.00;96948.69;5026840;28;20470;-84
2023/10/18 01:47:52;;;;;;;20.20;15.00;;;;;;;3.07;100.00;96941.88;5030921;28;20469;-84
2023/10/18 01:50:18;;;;;;;21.38;15.63;;;;;;;3.08;100.00;96938.22;5026082;28;20431;-84
2023/10/18 01:52:45;;;;;;;18.85;14.05;;;;;;;3.08;100.00;96945.31;5026045;28;20399;-84
2023/10/18 01:55:12;;;;;;;21.13;15.93;;;;;;;3.06;100.00;96936.84;5027459;28;20447;-85
2023/10/18 01:57:38;;;;;;;20.75;15.68;;;;;;;3.07;100.00;96938.47;5027290;28;20416;-84
2023/10/18 02:00:12;;;;;;;25.75;17.83;;;;;;;3.07;100.00;96933.25;5024847;28;20413;-84
2023/10/18 02:02:39;;;;;;;23.27;17.00;;;;;;;3.08;100.00;96927.78;5024028;28;20460;-83
2023/10/18 02:05:07;;;;;;;21.58;15.63;;;;;;;3.08;100.00;96927.00;5026004;28;20663;-84
2023/10/18 02:07:35;;;;;;;19.83;15.32;;;;;;;3.08;100.00;96921.75;5023447;28;20441;-83
2023/10/18 02:10:01;;;;;;;21.90;15.85;;;;;;;3.08;100.00;96927.78;5023974;28;20458;-83
2023/10/18 02:12:29;;;;;;;24.20;18.45;;;;;;;3.10;100.00;96923.13;5023235;28;20400;-82
2023/10/18 02:14:55;;;;;;;26.63;19.33;;;;;;;3.13;100.00;96921.91;5024646;28;20452;-85
2023/10/18 02:17:23;;;;;;;30.98;22.33;;;;;;;3.17;100.00;96932.72;5023230;28;20408;-81
2023/10/18 02:19:50;;;;;;;30.77;21.83;;;;;;;3.23;100.00;96927.47;5023190;28;20436;-83
2023/10/18 02:22:16;;;;;;;29.63;21.38;;;;;;;3.28;100.00;96932.03;5023228;28;20396;-82
2023/10/18 02:24:43;;;;;;;28.55;20.33;;;;;;;3.30;100.00;96930.00;5023362;28;20419;-83
2023/10/18 02:27:09;;;;;;;30.48;20.98;;;;;;;3.30;100.00;96928.19;5024394;28;20403;-82
2023/10/18 02:29:39;;;;;;;24.95;18.98;;;;;;;3.33;100.00;96932.19;5023869;28;20395;-83
2023/10/18 02:32:21;;;;;;;25.02;18.60;;;;;;;3.34;100.00;96928.56;5024476;28;20508;-83
2023/10/18 02:34:52;;;;;;;23.17;18.02;;;;;;;3.34;100.00;96924.13;5024896;28;20573;-84
2023/10/18 02:37:19;;;;;;;24.58;18.08;;;;;;;3.33;100.00;96924.34;5024118;28;20949;-83
2023/10/18 02:39:45;;;;;;;25.15;17.83;;;;;;;3.33;100.00;96917.28;5021041;28;20458;-84
2023/10/18 02:42:13;;;;;;;26.10;18.53;;;;;;;3.33;100.00;96921.72;5021100;28;20916;-83
2023/10/18 02:44:42;;;;;;;22.90;17.13;;;;;;;3.32;100.00;96914.88;5020473;28;20443;-84
2023/10/18 02:47:16;;;;;;;22.77;17.15;;;;;;;3.31;100.00;96914.06;5001370;28;20409;-84
2023/10/18 02:49:45;;;;;;;22.45;17.25;;;;;;;3.33;100.00;96911.25;4984089;28;20499;-83
2023/10/18 02:52:16;;;;;;;28.40;20.60;;;;;;;3.32;100.00;96912.25;5001741;28;20766;-82
2023/10/18 02:54:42;;;;;;;25.63;18.37;;;;;;;3.33;100.00;96911.25;5002158;28;20439;-83
2023/10/18 02:57:13;;;;;;;27.23;19.73;;;;;;;3.32;100.00;96914.88;4984274;28;20458;-84
2023/10/18 02:59:42;;;;;;;23.90;18.23;;;;;;;3.34;100.00;96910.25;5002057;28;20403;-83
2023/10/18 03:02:14;;;;;;;24.58;18.73;;;;;;;3.34;100.00;96907.63;5002311;28;20395;-83
2023/10/18 03:04:42;;;;;;;25.90;18.67;;;;;;;3.35;100.00;96912.66;5002110;28;20406;-84
2023/10/18 03:07:12;;;;;;;26.75;18.30;;;;;;;3.35;100.00;96904.78;5004554;28;20456;-84
2023/10/18 03:09:40;;;;;;;23.75;17.83;;;;;;;3.36;100.00;96905.59;5009754;28;20500;-84
2023/10/18 03:12:13;;;;;;;21.92;16.40;;;;;;;3.35;100.00;96899.56;5003458;28;20816;-85
2023/10/18 03:14:41;;;;;;;21.33;15.57;;;;;;;3.33;100.00;96893.75;5006242;28;20481;-84
2023/10/18 03:17:22;;;;;;;22.05;16.83;;;;;;;3.32;100.00;96897.38;5022446;28;20448;-85
2023/10/18 03:19:50;;;;;;;21.77;16.20;;;;;;;3.30;100.00;96890.78;5023702;28;20493;-84
2023/10/18 03:22:19;;;;;;;27.33;19.63;;;;;;;3.28;100.00;96890.19;5019811;28;20407;-81
2023/10/18 03:24:47;;;;;;;24.95;18.23;;;;;;;3.26;100.00;96881.75;5020014;28;20768;-83
2023/10/18 03:27:14;;;;;;;21.80;16.80;;;;;;;3.24;100.00;96892.41;5020151;28;20439;-83
2023/10/18 03:29:43;;;;;;;23.23;17.13;;;;;;;3.23;100.00;96890.03;5002617;28;20416;-83
2023/10/18 03:32:19;;;;;;;25.23;17.48;;;;;;;3.21;100.00;96886.84;5020342;28;20416;-83
2023/10/18 03:34:45;;;;;;;26.27;19.08;;;;;;;3.19;100.00;96883.63;5021406;28;20442;-83
2023/10/18 03:40:26;;;;;;;29.77;19.45;;;;;;;3.18;100.00;96879.41;5014694;28;20458;-81
2023/10/18 03:42:53;;;;;;;24.50;17.60;;;;;;;3.19;100.00;96878.41;5023942;28;20759;-82
2023/10/18 03:45:22;;;;;;;22.55;16.83;;;;;;;3.17;100.00;96878.63;5017605;28;20473;-81
2023/10/18 03:47:57;;;;;;;20.65;15.75;;;;;;;3.16;100.00;96876.25;5003970;28;20538;-83
2023/10/18 03:50:31;;;;;;;19.60;14.35;;;;;;;3.15;100.00;96877.25;5005956;28;20482;-81
2023/10/18 03:52:57;;;;;;;20.27;15.00;;;;;;;3.13;100.00;96879.28;5005957;28;20446;-84
2023/10/18 03:55:36;;;;;;;21.17;15.38;;;;;;;3.11;100.00;96880.28;5010518;28;20433;-84
2023/10/18 03:58:04;;;;;;;22.58;16.73;;;;;;;3.08;100.00;96874.69;5014355;28;20409;-81
2023/10/18 04:00:37;;;;;;;22.40;16.23;;;;;;;3.08;100.00;96872.09;5019684;28;20451;-84
2023/10/18 04:03:08;;;;;;;22.45;16.33;;;;;;;3.07;100.00;96860.81;5018811;28;20445;-84
2023/10/18 04:05:49;;;;;;;22.30;16.63;;;;;;;3.06;100.00;96861.84;5011661;28;20463;-84
2023/10/18 04:08:18;;;;;;;22.17;16.65;;;;;;;3.06;100.00;96864.44;5014367;28;20483;-86
2023/10/18 04:10:55;;;;;;;26.17;18.52;;;;;;;3.05;100.00;96849.78;5022165;28;20467;-83
2023/10/18 04:13:24;;;;;;;23.70;16.73;;;;;;;3.05;100.00;96843.75;5012147;28;20449;-84
2023/10/18 04:15:59;;;;;;;21.45;15.85;;;;;;;3.05;100.00;96838.50;5010728;28;20438;-85
2023/10/18 04:18:35;;;;;;;22.55;15.50;;;;;;;3.05;100.00;96838.50;5022370;28;20393;-84
2023/10/18 04:21:05;;;;;;;19.33;14.57;;;;;;;3.02;100.00;96820.63;5015352;28;20451;-83
2023/10/18 04:23:31;;;;;;;28.30;19.67;;;;;;;3.01;100.00;96819.84;5018077;28;20404;-82
2023/10/18 04:26:00;;;;;;;23.52;17.90;;;;;;;3.00;100.00;96822.69;5012786;28;20908;-82
2023/10/18 04:28:28;;;;;;;25.85;18.70;;;;;;;2.99;100.00;96826.31;5016192;28;20445;-80
2023/10/18 04:31:00;;;;;;;24.08;17.88;;;;;;;2.99;100.00;96828.94;5011021;28;20416;-83
2023/10/18 04:33:28;;;;;;;24.40;18.42;;;;;;;3.00;100.00;96833.16;5020430;28;20408;-85
2023/10/18 04:35:58;;;;;;;24.35;18.20;;;;;;;3.00;100.00;96823.50;5005318;28;21284;-84
2023/10/18 04:38:30;;;;;;;22.55;16.98;;;;;;;3.01;100.00;96821.66;5007853;28;20412;-84
2023/10/18 04:43:32;;;;;;;22.37;15.60;;;;;;;2.97;100.00;96808.22;5002668;28;20402;-82
2023/10/18 04:46:14;;;;;;;21.83;16.15;;;;;;;2.96;100.00;96805.81;5006401;28;20406;-81
2023/10/18 04:49:00;;;;;;;23.10;16.58;;;;;;;2.94;100.00;96815.69;5003147;28;20451;-82
2023/10/18 04:51:27;;;;;;;26.17;17.95;;;;;;;2.91;100.00;96809.09;5009250;28;20510;-83
2023/10/18 04:53:54;;;;;;;23.35;17.08;;;;;;;2.91;100.00;96803.06;5009229;28;20795;-85
2023/10/18 04:56:29;;;;;;;28.20;19.25;;;;;;;2.90;100.00;96810.09;5010671;28;20402;-82
2023/10/18 04:58:59;;;;;;;30.25;21.65;;;;;;;2.91;100.00;96798.66;5003631;28;20779;-84
2023/10/18 05:01:33;;;;;;;29.58;19.92;;;;;;;2.93;100.00;96793.97;5004929;28;20449;-83
2023/10/18 05:04:18;;;;;;;26.63;19.20;;;;;;;2.94;100.00;96790.34;5008864;28;20445;-83
2023/10/18 05:06:45;;;;;;;25.40;18.50;;;;;;;2.96;100.00;96790.94;5001679;28;20409;-83
2023/10/18 05:09:12;;;;;;;25.95;18.70;;;;;;;2.96;100.00;96785.72;5004785;28;20752;-83
2023/10/18 05:11:47;;;;;;;26.48;19.25;;;;;;;2.95;100.00;96784.09;5012619;28;20429;-84
2023/10/18 05:14:35;;;;;;;28.30;19.17;;;;;;;2.96;100.00;96787.53;5015302;28;20461;-85
2023/10/18 05:17:04;;;;;;;26.48;19.95;;;;;;;2.94;100.00;96777.28;5004251;28;20434;-84
2023/10/18 05:19:37;;;;;;;25.75;19.30;;;;;;;2.94;100.00;96777.28;5009250;28;20442;-85
2023/10/18 05:22:04;;;;;;;34.00;22.92;;;;;;;2.95;100.00;96776.28;5006130;28;20413;-84
2023/10/18 05:24:36;;;;;;;35.83;24.75;;;;;;;2.93;100.00;96778.28;5011744;28;20500;-84
2023/10/18 05:27:19;;;;;;;34.60;24.55;;;;;;;2.93;100.00;96782.75;5011124;28;20498;-85
2023/10/18 05:29:52;;;;;;;31.53;22.77;;;;;;;2.92;100.00;96783.75;5007465;28;20945;-82
2023/10/18 05:35:11;;;;;;;32.10;22.08;;;;;;;2.92;100.00;96786.38;5007201;28;20877;-83
2023/10/18 05:37:41;;;;;;;31.97;21.90;;;;;;;2.95;100.00;96783.31;5001034;28;20988;-82
2023/10/18 05:42:55;;;;;;;28.57;20.67;;;;;;;2.98;100.00;96778.47;5000589;28;20850;-84
2023/10/18 05:45:22;;;;;;;28.83;21.07;;;;;;;3.00;100.00;96783.47;5000594;28;20458;-83
2023/10/18 05:47:54;;;;;;;36.20;24.45;;;;;;;3.01;100.00;96788.47;5000275;28;20898;-83
2023/10/18 05:50:24;;;;;;;37.85;27.02;;;;;;;3.02;100.00;96786.66;5000892;28;20469;-84
2023/10/18 05:52:57;;;;;;;39.42;27.73;;;;;;;3.02;100.00;96782.22;5001418;28;20505;-84
2023/10/18 05:55:24;;;;;;;34.17;24.08;;;;;;;3.04;100.00;96779.41;5001948;28;20815;-83
2023/10/18 05:57:50;;;;;;;37.17;25.80;;;;;;;3.05;100.00;96767.94;5003469;28;20434;-84
2023/10/18 06:00:18;;;;;;;40.53;27.50;;;;;;;3.06;100.00;96770.31;5001661;28;20483;-84
2023/10/18 06:02:45;;;;;;;38.43;25.90;;;;;;;3.06;100.00;96767.72;4984492;28;20923;-84
2023/10/18 06:05:11;;;;;;;34.80;24.05;;;;;;;3.08;100.00;96767.50;5001476;28;20434;-83
2023/10/18 06:07:38;;;;;;;39.17;27.17;;;;;;;3.10;100.00;96768.88;5003482;28;20404;-83
2023/10/18 06:10:16;;;;;;;39.47;26.70;;;;;;;3.14;100.00;96771.06;5003637;28;20430;-83
2023/10/18 06:12:46;;;;;;;35.63;25.30;;;;;;;3.19;100.00;96758.09;5004774;28;20410;-83
2023/10/18 06:15:13;;;;;;;36.63;25.77;;;;;;;3.23;100.00;96759.28;5004384;28;20413;-84
2023/10/18 06:17:47;;;;;;;33.42;24.20;;;;;;;3.29;100.00;96761.81;5004306;28;20448;-84
2023/10/18 06:20:29;;;;;;;29.73;21.67;;;;;;;3.36;100.00;96764.34;5004984;28;20422;-84
2023/10/18 06:23:08;;;;;;;28.55;20.85;;;;;;;3.42;100.00;96759.03;5004770;28;20567;-84
2023/10/18 06:25:35;;;;;;;24.00;18.27;;;;;;;3.49;100.00;96759.72;5005363;28;20433;-84
2023/10/18 06:28:06;;;;;;;23.48;17.95;;;;;;;3.54;100.00;96753.81;5023863;28;20502;-83
2023/10/18 06:30:39;;;;;;;25.65;18.27;;;;;;;3.61;100.00;96753.75;5024551;28;20466;-83
2023/10/18 06:33:07;;;;;;;25.77;18.10;;;;;;;3.66;100.00;96748.66;5022566;28;20916;-80
2023/10/18 06:35:42;;;;;;;25.30;18.45;;;;;;;3.72;100.00;96761.63;5028137;28;20540;-80
2023/10/18 06:38:16;;;;;;;25.42;18.85;;;;;;;3.78;100.00;96757.31;5022375;28;20457;-81
2023/10/18 06:41:02;;;;;;;25.42;18.65;;;;;;;3.83;100.00;96762.72;5022875;28;20440;-82
2023/10/18 06:43:29;;;;;;;24.40;17.95;;;;;;;3.89;100.00;96744.28;5020707;28;20426;-82
2023/10/18 06:45:57;;;;;;;24.95;18.42;;;;;;;3.95;100.00;96742.59;5021728;28;20869;-83
2023/10/18 06:48:28;;;;;;;26.15;19.20;;;;;;;4.01;100.00;96740.88;5022776;28;20753;-81
2023/10/18 06:50:54;;;;;;;22.83;17.75;;;;;;;4.06;100.00;96741.78;5021653;28;20431;-82
2023/10/18 06:53:20;;;;;;;22.15;16.83;;;;;;;4.12;100.00;96747.97;5022179;28;20428;-82
2023/10/18 06:55:58;;;;;;;23.95;17.25;;;;;;;4.17;100.00;96746.25;5022406;28;20408;-83
2023/10/18 07:01:03;;;;;;;24.55;18.70;;;;;;;4.28;100.00;96742.84;5021815;28;20436;-82
2023/10/18 07:03:33;;;;;;;26.88;20.02;;;;;;;4.37;100.00;96747.75;5021946;28;20405;-81
2023/10/18 07:08:45;;;;;;;24.00;18.50;;;;;;;4.49;100.00;96736.28;5020809;28;20471;-82
2023/10/18 07:11:16;;;;;;;25.33;19.27;;;;;;;4.55;100.00;96731.94;5022873;28;20768;-81
2023/10/18 07:13:46;;;;;;;27.15;20.35;;;;;;;4.59;100.00;96727.81;5020749;28;20455;-82
2023/10/18 07:16:25;;;;;;;27.75;20.48;;;;;;;4.63;100.00;96729.75;5004586;28;20429;-80
2023/10/18 07:21:38;;;;;;;31.30;23.35;;;;;;;4.72;100.00;96717.13;4998934;28;20402;-80
2023/10/18 07:24:10;;;;;;;34.27;25.37;;;;;;;4.78;100.00;96716.19;4999663;28;20464;-83
2023/10/18 07:26:37;;;;;;;29.43;23.03;;;;;;;4.85;100.00;96710.81;4999699;28;20906;-81
2023/10/18 07:29:09;;;;;;;26.33;19.77;;;;;;;4.91;100.00;96702.00;4999561;28;20454;-84
2023/10/18 07:31:38;;;;;;;24.15;18.60;;;;;;;4.98;100.00;96700.06;5001338;28;20454;-83
2023/10/18 07:34:08;;;;;;;24.63;18.77;;;;;;;5.05;100.00;96692.84;5001577;28;20413;-84
2023/10/18 07:36:37;;;;;;;20.63;16.83;;;;;;;5.12;100.00;96688.28;5001311;28;20800;-84
2023/10/18 07:39:04;;;;;;;20.57;16.13;;;;;;;5.19;100.00;96682.91;5000968;28;20402;-84
2023/10/18 07:41:34;;;;;;;20.27;16.20;;;;;;;5.28;100.00;96681.47;5001048;28;20410;-85
2023/10/18 07:44:00;;;;;;;17.85;14.88;;;;;;;5.39;100.00;96684.06;5001356;28;20434;-84
2023/10/18 07:46:27;;;;;;;23.98;17.90;;;;;;;5.49;100.00;96680.81;5016495;28;20412;-82
2023/10/18 07:48:56;;;;;;;21.20;16.20;;;;;;;5.59;100.00;96665.25;5021841;28;20451;-82
2023/10/18 07:51:28;;;;;;;19.05;15.27;;;;;;;5.70;100.00;96669.66;5020317;28;20512;-84
2023/10/18 07:53:54;;;;;;;19.10;14.40;;;;;;;5.81;100.00;96668.78;5019790;28;20404;-83
2023/10/18 07:56:27;;;;;;;23.63;16.45;;;;;;;5.91;100.00;96670.81;4993340;28;20406;-82
2023/10/18 07:58:53;;;;;;;25.17;17.77;;;;;;;6.01;100.00;96660.47;5000119;28;20445;-82
2023/10/18 08:04:20;;;;;;;21.90;15.73;;;;;;;6.33;100.00;96652.78;4955636;28;20421;-82
2023/10/18 08:06:50;;;;;;;18.75;14.45;;;;;;;6.53;100.00;96655.69;5001856;28;20398;-84
2023/10/18 08:09:17;;;;;;;17.40;13.57;;;;;;;6.74;100.00;96654.13;4999780;28;20871;-85
2023/10/18 08:11:44;;;;;;;18.45;13.20;;;;;;;6.91;100.00;96651.44;5000470;28;20433;-85
2023/10/18 08:14:16;;;;;;;16.10;11.77;;;;;;;7.02;100.00;96645.22;4998428;28;20429;-83
2023/10/18 08:16:43;;;;;;;14.57;10.83;;;;;;;7.14;100.00;96640.63;5000275;28;20407;-84
2023/10/18 08:19:09;;;;;;;14.13;10.57;;;;;;;7.28;100.00;96649.75;5000769;28;20430;-82
2023/10/18 08:21:38;;;;;;;14.63;11.60;;;;;;;7.41;100.00;96656.44;5001502;28;20771;-84
2023/10/18 08:24:20;;;;;;;18.25;11.57;;;;;;;7.55;100.00;96662.91;5004316;28;20445;-82
2023/10/18 08:26:47;;;;;;;15.52;10.73;;;;;;;7.70;100.00;96664.88;5002860;28;20403;-84
2023/10/18 08:29:13;;;;;;;13.60;10.27;;;;;;;7.87;100.00;96672.66;5004826;28;20394;-82
2023/10/18 08:31:39;;;;;;;15.52;10.82;;;;;;;8.02;100.00;96670.94;5006665;28;20418;-83
2023/10/18 08:34:06;;;;;;;17.65;11.80;;;;;;;8.14;100.00;96654.94;5006813;28;20410;-84
2023/10/18 08:36:32;;;;;;;14.02;10.75;;;;;;;8.21;100.00;96638.91;5009023;28;20414;-82
2023/10/18 08:39:01;;;;;;;13.05;10.38;;;;;;;8.23;100.00;96644.72;5005936;28;20402;-83
2023/10/18 08:41:32;;;;;;;13.07;9.45;;;;;;;8.26;100.00;96636.31;5006088;28;20430;-83
2023/10/18 08:44:09;;;;;;;12.10;9.23;;;;;;;8.30;100.00;96642.66;5005828;28;20477;-83
2023/10/18 08:46:41;;;;;;;16.15;12.90;;;;;;;8.30;100.00;96637.38;5021756;28;20408;-84
2023/10/18 08:49:09;;;;;;;16.80;13.52;;;;;;;8.25;100.00;96645.28;5026866;28;20400;-83
2023/10/18 08:51:37;;;;;;;20.13;14.48;;;;;;;8.26;100.00;96641.59;5030279;28;20800;-83
2023/10/18 08:54:17;;;;;;;20.75;15.10;;;;;;;8.27;100.00;96633.41;5030170;28;20393;-83
2023/10/18 08:56:47;;;;;;;20.00;13.50;;;;;;;8.40;100.00;96626.94;5027646;28;20412;-83
2023/10/18 08:59:18;;;;;;;23.35;16.00;;;;;;;8.41;100.00;96621.41;5030467;28;20416;-84
2023/10/18 09:02:09;;;;;;;20.50;15.32;;;;;;;8.45;100.00;96616.41;5031940;28;20412;-85
2023/10/18 09:04:31;;;;;;;22.23;14.77;;;;;;;8.48;100.00;96618.56;5027014;28;20420;-82
2023/10/18 09:07:00;;;;;;;17.65;13.20;;;;;;;8.53;100.00;96611.44;5025122;28;20413;-84
2023/10/18 09:09:34;;;;;;;16.77;12.15;;;;;;;8.65;100.00;96610.44;5025956;28;20393;-83
2023/10/18 09:12:14;;;;;;;15.07;11.80;;;;;;;8.80;100.00;96606.00;5026482;28;20487;-83
2023/10/18 09:14:41;;;;;;;15.38;10.73;;;;;;;8.98;100.00;96611.88;5021346;28;20430;-84
2023/10/18 09:17:10;;;;;;;16.95;12.43;;;;;;;8.95;100.00;96612.41;5004885;28;20430;-84
2023/10/18 09:19:38;;;;;;;15.57;12.05;;;;;;;9.00;100.00;96607.94;5004951;28;20399;-85
2023/10/18 09:22:05;;;;;;;12.30;9.90;;;;;;;9.18;100.00;96602.16;5004894;28;20398;-84
2023/10/18 09:24:32;;;;;;;14.00;9.85;;;;;;;9.48;100.00;96597.97;5005387;28;20426;-81
2023/10/18 09:27:00;;;;;;;13.03;9.77;;;;;;;9.82;100.00;96590.34;5003852;28;20403;-82
2023/10/18 09:29:29;;;;;;;11.65;8.38;;;;;;;10.23;100.00;96583.16;5011449;28;20759;-84
2023/10/18 09:32:02;;;;;;;13.70;9.53;;;;;;;10.58;100.00;96577.78;5013623;28;20886;-84
2023/10/18 09:34:35;;;;;;;19.25;12.45;;;;;;;10.71;100.00;96569.25;5011763;28;20405;-84
2023/10/18 09:37:04;;;;;;;20.35;13.68;;;;;;;10.63;100.00;96564.53;5014899;28;20675;-82
2023/10/18 09:39:42;;;;;;;17.05;11.85;;;;;;;10.99;100.00;96561.72;4997933;28;20419;-84
2023/10/18 09:42:12;;;;;;;14.73;10.23;;;;;;;11.50;100.00;96570.16;5023086;28;20423;-84
2023/10/18 09:44:41;;;;;;;15.77;9.90;;;;;;;11.90;100.00;96563.72;5015584;28;21289;-82
2023/10/18 09:47:08;;;;;;;12.75;9.48;;;;;;;12.30;100.00;96565.22;5015426;28;20401;-84
2023/10/18 09:49:34;;;;;;;13.23;8.73;;;;;;;12.53;100.00;96553.81;5023842;28;20417;-84
2023/10/18 09:52:03;;;;;;;11.65;7.85;;;;;;;12.64;100.00;96552.59;5011432;28;20952;-84
2023/10/18 09:54:36;;;;;;;13.05;8.65;;;;;;;12.63;100.00;96563.53;5006863;28;20409;-85
2023/10/18 09:57:02;;;;;;;14.18;8.95;;;;;;;12.48;100.00;96559.16;5019302;28;20556;-84
2023/10/18 09:59:32;;;;;;;13.05;9.50;;;;;;;12.31;100.00;96550.88;5013204;28;20421;-82
2023/10/18 10:02:08;;;;;;;14.18;9.57;;;;;;;12.23;100.00;96551.47;5007422;28;20771;-83
2023/10/18 10:04:35;;;;;;;12.15;8.77;;;;;;;12.21;100.00;96551.75;5024576;28;20408;-84
2023/10/18 10:09:48;;;;;;;13.35;9.10;;;;;;;12.23;100.00;96540.88;5008726;28;20465;-83
2023/10/18 10:12:16;;;;;;;11.70;8.15;;;;;;;12.26;100.00;96535.78;5014440;28;20416;-84
2023/10/18 10:14:42;;;;;;;12.18;8.23;;;;;;;12.21;100.00;96529.75;5003029;28;20418;-82
2023/10/18 10:17:15;;;;;;;10.88;8.38;;;;;;;12.11;100.00;96525.31;5003768;28;20399;-84
2023/10/18 10:19:46;;;;;;;12.80;8.93;;;;;;;12.02;100.00;96525.16;5013593;28;20444;-83
2023/10/18 10:22:15;;;;;;;15.52;8.75;;;;;;;11.91;100.00;96526.31;5012510;28;20413;-82
2023/10/18 10:24:43;;;;;;;12.75;9.10;;;;;;;11.80;100.00;96529.38;5011402;28;20452;-84
2023/10/18 10:29:59;;;;;;;14.10;9.00;;;;;;;11.65;100.00;96527.63;5009174;28;20437;-83
2023/10/18 10:32:28;;;;;;;17.90;9.70;;;;;;;11.72;100.00;96524.63;4998942;28;20434;-83
2023/10/18 10:35:15;;;;;;;12.55;8.30;;;;;;;12.03;100.00;96516.13;4999446;28;20434;-81
2023/10/18 10:37:49;;;;;;;14.52;8.93;;;;;;;12.49;100.00;96518.25;5010596;28;20408;-83
2023/10/18 10:40:19;;;;;;;14.10;9.40;;;;;;;12.95;100.00;96515.03;5001396;28;20423;-84
2023/10/18 10:42:52;;;;;;;14.07;9.43;;;;;;;13.43;100.00;96511.16;5018986;28;20400;-85
2023/10/18 10:45:38;;;;;;;12.32;7.88;;;;;;;14.00;100.00;96495.00;5020247;28;20405;-84
2023/10/18 10:48:36;;;;;;;12.60;7.75;;;;;;;14.55;100.00;96493.19;5016677;28;20414;-85
2023/10/18 10:51:13;;;;;;;10.93;7.65;;;;;;;15.06;100.00;96483.00;5005326;28;20421;-85
2023/10/18 10:53:45;;;;;;;10.25;6.88;;;;;;;15.37;100.00;96476.97;5011656;28;20796;-84
2023/10/18 10:56:36;;;;;;;10.07;6.75;;;;;;;15.40;100.00;96463.81;5018189;28;20397;-85
2023/10/18 11:04:57;;;;;;;9.52;6.72;;;;;;;14.75;100.00;96471.44;5019486;28;20412;-85
2023/10/18 11:07:25;;;;;;;12.80;7.53;;;;;;;14.73;100.00;96476.28;5006044;28;20493;-85
2023/10/18 11:09:59;;;;;;;11.20;7.10;;;;;;;14.94;100.00;96480.09;5000113;28;20418;-85
2023/10/18 11:12:27;;;;;;;12.00;7.78;;;;;;;15.25;100.00;96468.72;5001373;28;20525;-86
2023/10/18 11:14:53;;;;;;;11.88;7.40;;;;;;;15.41;100.00;96461.94;5015390;28;20400;-84
2023/10/18 11:17:23;;;;;;;9.80;6.97;;;;;;;15.30;100.00;96452.59;5029652;28;20418;-84
2023/10/18 11:19:53;;;;;;;9.87;6.27;;;;;;;15.00;100.00;96449.56;5021006;28;20416;-84
2023/10/18 11:22:20;;;;;;;7.60;5.33;;;;;;;14.66;100.00;96438.59;5018763;28;20396;-84
2023/10/18 11:24:49;;;;;;;10.23;6.75;;;;;;;14.30;100.00;96441.19;5021120;28;20405;-85
2023/10/18 11:27:17;;;;;;;8.77;5.75;;;;;;;13.93;100.00;96444.84;5020633;28;20451;-84
2023/10/18 11:29:43;;;;;;;7.95;5.88;;;;;;;13.61;100.00;96437.72;5018925;28;20741;-83
2023/10/18 11:32:19;;;;;;;8.07;5.40;;;;;;;13.34;100.00;96430.47;5019614;28;20427;-83
2023/10/18 11:34:46;;;;;;;7.57;5.82;;;;;;;13.16;100.00;96424.13;5016722;28;20555;-84
2023/10/18 11:37:26;;;;;;;12.05;7.63;;;;;;;13.06;100.00;96421.63;5017801;28;20436;-84
2023/10/18 11:39:55;;;;;;;10.82;7.15;;;;;;;13.09;100.00;96409.59;4998974;28;20492;-84
2023/10/18 11:42:21;;;;;;;8.80;6.28;;;;;;;13.16;100.00;96407.38;5016161;28;20447;-84
2023/10/18 11:44:54;;;;;;;11.30;6.90;;;;;;;13.15;100.00;96397.88;5018199;28;20408;-85
2023/10/18 11:47:20;;;;;;;13.90;7.82;;;;;;;13.13;100.00;96390.19;5017032;28;20395;-83
2023/10/18 11:49:54;;;;;;;11.60;8.20;;;;;;;13.06;100.00;96389.72;5018663;28;20397;-84
2023/10/18 11:52:22;;;;;;;12.10;7.80;;;;;;;13.03;100.00;96386.84;5017853;28;20424;-83
2023/10/18 11:54:52;;;;;;;10.07;6.82;;;;;;;13.00;100.00;96385.59;5021650;28;20403;-83
2023/10/18 11:57:29;;;;;;;9.88;6.30;;;;;;;12.98;100.00;96386.94;5023374;28;20397;-83
2023/10/18 11:59:56;;;;;;;9.07;6.20;;;;;;;12.95;100.00;96392.81;5024900;28;20395;-82
2023/10/18 12:02:30;;;;;;;9.43;6.55;;;;;;;12.90;100.00;96382.28;5023976;28;20397;-82
2023/10/18 12:04:57;;;;;;;8.07;5.80;;;;;;;12.83;100.00;96382.66;5025778;28;20448;-84
2023/10/18 12:07:25;;;;;;;11.88;6.80;;;;;;;12.73;100.00;96372.97;5027404;28;20405;-84
2023/10/18 12:09:51;;;;;;;14.20;8.75;;;;;;;12.59;100.00;96376.66;5026525;28;20468;-84